Date,TemperatureHighF,TemperatureAvgF,TemperatureLowF,DewpointHighF,DewpointAvgF,DewpointLowF,HumidityHigh,HumidityAvg,HumidityLow,PressureMaxIn,PressureMinIn,WindSpeedMaxMPH,WindSpeedAvgMPH,GustSpeedMaxMPH,PrecipitationSumIn
2013-2-1,32.9,30.1,27.0,23.0,18.1,11.8,73,61,50,30.21,29.75,31,-2,31,0.00
2013-2-2,30.7,27.5,23.5,24.8,16.5,10.0,93,64,43,30.34,30.11,20,-3,25,0.00
2013-2-3,31.1,28.2,23.2,24.4,21.9,18.9,93,77,64,30.11,29.80,14,-8,14,0.00
2013-2-4,31.3,29.0,26.4,26.1,18.6,13.8,88,65,55,30.02,29.81,18,-6,18,0.00
2013-2-5,30.0,28.6,25.9,28.6,24.6,14.4,94,85,59,30.04,29.95,13,-5,13,0.00
2013-2-6,37.8,33.7,27.9,30.6,26.3,8.8,93,75,41,30.39,29.95,28,-6,28,0.03
2013-2-7,32.2,29.0,26.2,23.9,15.0,7.3,76,56,40,30.56,30.38,27,-3,27,0.00
2013-2-8,34.5,32.5,28.0,33.3,30.6,22.8,98,93,72,30.43,29.52,37,-1,41,0.35
2013-2-9,30.4,27.3,23.7,27.5,15.0,10.4,98,60,47,30.31,29.63,43,17,44,0.35
2013-2-10,34.7,26.7,21.9,20.1,13.1,5.0,72,57,34,30.51,30.30,29,-7,31,0.00
2013-2-11,48.4,40.3,27.3,47.5,39.0,19.6,99,95,71,30.41,29.70,22,-5,22,0.62
2013-2-12,39.9,37.9,35.2,38.1,33.8,31.1,100,85,75,29.99,29.72,15,-2,15,0.00
2013-2-13,38.7,35.8,33.8,33.4,30.5,25.0,90,81,61,29.97,29.71,11,-6,11,0.00
2013-2-14,42.3,36.1,32.0,34.5,31.2,25.5,97,83,54,30.06,29.74,15,-8,15,0.04
2013-2-15,50.4,42.3,34.2,41.2,38.1,32.5,98,86,67,30.08,29.96,19,-8,19,0.01
2013-2-16,40.8,35.6,30.9,37.8,30.9,26.1,95,83,66,29.98,29.71,28,-1,28,0.00
2013-2-17,30.9,27.2,20.7,27.7,16.2,10.2,88,64,44,29.89,29.57,41,10,41,0.00
2013-2-18,33.1,26.5,20.1,20.8,15.0,10.6,72,62,51,30.27,29.89,35,-2,35,0.00
2013-2-19,50.2,40.9,29.8,46.2,34.7,15.4,97,79,53,30.27,29.68,20,-11,23,0.25
2013-2-20,37.6,32.2,27.5,36.9,22.7,16.9,97,68,55,29.96,29.68,24,2,27,0.10
2013-2-21,33.6,29.1,25.9,23.0,20.0,17.6,78,69,59,30.28,29.94,33,1,33,0.00
2013-2-22,37.9,32.6,27.1,29.5,26.0,20.5,83,77,67,30.44,30.27,31,-5,32,0.00
2013-2-23,40.6,37.3,33.4,38.5,35.0,28.8,97,91,82,30.34,29.83,25,-7,25,0.18
2013-2-24,37.8,36.4,33.3,37.0,35.3,31.3,98,96,82,29.96,29.73,24,-3,24,0.07
2013-2-25,43.2,37.3,33.3,34.2,31.5,28.0,95,80,63,30.29,29.96,19,-8,19,0.00
2013-2-26,43.3,38.3,34.9,36.1,33.7,29.8,96,84,62,30.36,30.03,21,-8,21,0.12
2013-2-27,46.9,42.0,37.2,46.8,41.5,36.1,100,98,96,30.03,29.56,33,-5,36,1.24
2013-2-28,46.8,41.1,36.9,44.2,39.2,36.3,99,93,81,29.67,29.57,9,-10,9,0.09